Time;durP1;ratioP1;P1;durP2;ratioP2;P2;SDS_P1;SDS_P2;PMS_P1;PMS_P2;Temp;Humidity;BMP_temperature;BMP_pressure;BME280_temperature;BME280_humidity;BME280_pressure;Samples;Min_cycle;Max_cycle;Signal;HPM_P1;HPM_P2
2023/08/07 00:01:47;;;;;;;10.88;4.30;;;15.40;99.90;;;;;;4977152;28;20042;-87
2023/08/07 00:04:13;;;;;;;10.18;5.13;;;15.40;99.90;;;;;;4977044;28;20053;-87
2023/08/07 00:06:38;;;;;;;10.40;4.05;;;15.30;99.90;;;;;;4976796;28;20042;-87
2023/08/07 00:09:04;;;;;;;13.15;9.55;;;15.30;99.90;;;;;;4977004;28;20041;-87
2023/08/07 00:11:30;;;;;;;13.85;9.50;;;15.30;99.90;;;;;;4976513;28;20034;-87
2023/08/07 00:13:56;;;;;;;12.70;9.50;;;15.40;99.90;;;;;;4976746;28;20039;-87
2023/08/07 00:16:21;;;;;;;9.35;4.75;;;15.40;99.90;;;;;;4976000;28;20088;-87
2023/08/07 00:18:47;;;;;;;11.80;8.73;;;15.40;99.90;;;;;;4976228;28;20112;-87
2023/08/07 00:21:12;;;;;;;9.45;4.45;;;15.30;99.90;;;;;;4976763;28;20038;-87
2023/08/07 00:23:38;;;;;;;9.13;4.28;;;15.30;99.90;;;;;;4976513;28;20038;-87
2023/08/07 00:26:03;;;;;;;10.35;7.60;;;15.30;99.90;;;;;;4976407;28;20054;-87
2023/08/07 00:28:29;;;;;;;10.93;7.53;;;15.30;99.90;;;;;;4976262;28;20133;-87
2023/08/07 00:30:55;;;;;;;10.68;4.47;;;15.40;99.90;;;;;;4976999;28;20034;-87
2023/08/07 00:33:21;;;;;;;9.23;4.25;;;15.30;99.90;;;;;;4976312;28;20517;-87
2023/08/07 00:35:46;;;;;;;7.90;3.22;;;15.30;99.90;;;;;;4976320;28;20042;-87
2023/08/07 00:38:12;;;;;;;10.15;7.45;;;15.30;99.90;;;;;;4976393;28;20042;-87
2023/08/07 00:40:39;;;;;;;10.02;7.25;;;15.30;99.90;;;;;;4994210;28;20070;-87
2023/08/07 00:43:04;;;;;;;9.65;4.40;;;15.30;99.90;;;;;;4976760;28;20129;-87
2023/08/07 00:45:36;;;;;;;10.77;5.03;;;15.30;99.90;;;;;;4976294;28;20141;-87
2023/08/07 00:48:02;;;;;;;10.20;4.05;;;15.30;99.90;;;;;;4976084;28;20034;-87
2023/08/07 00:50:28;;;;;;;11.13;6.80;;;15.30;99.90;;;;;;4976339;28;20045;-87
2023/08/07 00:52:55;;;;;;;10.52;7.03;;;15.30;99.90;;;;;;4993481;28;20034;-87
2023/08/07 00:55:21;;;;;;;10.13;3.53;;;15.40;99.90;;;;;;4976387;28;20129;-87
2023/08/07 00:57:46;;;;;;;10.48;6.80;;;15.30;99.90;;;;;;4976155;28;20476;-87
2023/08/07 01:00:14;;;;;;;12.40;4.35;;;15.30;99.90;;;;;;4976007;28;20456;-87
2023/08/07 01:02:40;;;;;;;10.25;6.38;;;15.30;99.90;;;;;;4976004;28;20034;-87
2023/08/07 01:05:06;;;;;;;9.68;6.35;;;15.30;99.90;;;;;;4975888;28;20101;-87
2023/08/07 01:07:31;;;;;;;8.73;3.78;;;15.40;99.90;;;;;;4975610;28;20038;-87
2023/08/07 01:10:02;;;;;;;10.18;6.15;;;15.30;99.90;;;;;;4975966;28;20072;-87
2023/08/07 01:12:36;;;;;;;9.25;3.35;;;15.30;99.90;;;;;;4975774;28;20713;-87
2023/08/07 01:15:07;;;;;;;8.63;3.30;;;15.30;99.90;;;;;;4975868;28;20038;-87
2023/08/07 01:17:34;;;;;;;10.32;6.13;;;15.20;99.90;;;;;;4975273;28;20510;-87
2023/08/07 01:20:01;;;;;;;11.77;5.60;;;15.30;99.90;;;;;;4975697;28;20042;-87
2023/08/07 01:22:27;;;;;;;10.50;5.78;;;15.30;99.90;;;;;;4976059;28;20452;-87
2023/08/07 01:24:52;;;;;;;7.20;2.90;;;15.30;99.90;;;;;;4975738;28;20571;-87
2023/08/07 01:27:18;;;;;;;7.93;3.33;;;15.30;99.90;;;;;;4974567;28;20042;-87
2023/08/07 01:29:46;;;;;;;10.88;6.15;;;15.20;99.90;;;;;;4975705;28;20048;-87
2023/08/07 01:32:17;;;;;;;10.60;6.20;;;15.20;99.90;;;;;;4975592;28;20377;-87
2023/08/07 01:34:44;;;;;;;8.82;3.22;;;15.20;99.90;;;;;;4975508;28;20050;-87
2023/08/07 01:37:11;;;;;;;7.97;3.28;;;15.20;99.90;;;;;;4975372;28;20565;-87
2023/08/07 01:39:37;;;;;;;7.75;2.90;;;15.10;99.90;;;;;;4975419;28;20124;-87
2023/08/07 01:42:04;;;;;;;10.73;5.68;;;15.10;99.90;;;;;;4975347;28;20407;-87
2023/08/07 01:44:30;;;;;;;12.75;5.80;;;15.10;99.90;;;;;;4975570;28;20400;-87
2023/08/07 01:46:56;;;;;;;8.95;3.28;;;15.10;99.90;;;;;;4974728;28;20050;-86
2023/08/07 01:49:22;;;;;;;9.13;3.17;;;15.10;99.90;;;;;;4975146;28;20039;-87
2023/08/07 01:51:47;;;;;;;10.27;3.38;;;15.00;99.90;;;;;;4975209;28;20034;-87
2023/08/07 01:54:13;;;;;;;8.15;3.15;;;15.00;99.90;;;;;;4975657;28;20038;-86
2023/08/07 01:56:38;;;;;;;11.85;4.97;;;15.00;99.90;;;;;;4975180;28;20054;-87
2023/08/07 01:59:04;;;;;;;9.95;5.30;;;15.10;99.90;;;;;;4975342;28;20466;-87
2023/08/07 02:01:29;;;;;;;9.10;4.53;;;15.10;99.90;;;;;;4975279;28;20066;-87
2023/08/07 02:03:55;;;;;;;6.63;2.72;;;15.10;99.90;;;;;;4975116;28;20458;-87
2023/08/07 02:06:20;;;;;;;9.20;2.42;;;15.10;99.90;;;;;;4975000;28;20042;-87
2023/08/07 02:08:46;;;;;;;14.48;4.88;;;15.00;99.90;;;;;;4974961;28;20038;-87
2023/08/07 02:11:12;;;;;;;13.25;4.88;;;15.10;99.90;;;;;;4975307;28;20088;-87
2023/08/07 02:13:37;;;;;;;13.48;5.05;;;15.10;99.90;;;;;;4974946;28;20522;-87
2023/08/07 02:16:03;;;;;;;10.98;2.22;;;15.10;99.90;;;;;;4974926;28;20084;-86
2023/08/07 02:18:29;;;;;;;6.18;2.15;;;15.00;99.90;;;;;;4975126;28;20050;-87
2023/08/07 02:20:54;;;;;;;13.60;3.83;;;15.00;99.90;;;;;;4975262;28;20488;-87
2023/08/07 02:23:20;;;;;;;11.50;4.05;;;15.00;99.90;;;;;;4974961;28;20515;-87
2023/08/07 02:25:46;;;;;;;5.03;1.85;;;15.00;99.90;;;;;;4974838;28;20042;-87
2023/08/07 02:28:11;;;;;;;6.45;1.85;;;14.90;99.90;;;;;;4974856;28;20038;-87
2023/08/07 02:30:37;;;;;;;7.72;2.45;;;14.90;99.90;;;;;;4974745;28;20046;-87
2023/08/07 02:33:03;;;;;;;12.50;3.92;;;14.80;99.90;;;;;;4974944;28;20045;-87
2023/08/07 02:35:28;;;;;;;11.50;2.00;;;14.90;99.90;;;;;;4974573;28;20507;-87
2023/08/07 02:37:54;;;;;;;12.55;4.38;;;14.80;99.90;;;;;;4974458;28;20097;-86
2023/08/07 02:40:19;;;;;;;6.85;2.00;;;14.80;99.90;;;;;;4977753;28;20038;-83
2023/08/07 02:42:45;;;;;;;12.00;3.58;;;14.80;99.90;;;;;;4984792;28;20104;-86
2023/08/07 02:45:10;;;;;;;7.93;2.35;;;14.80;99.90;;;;;;4979674;28;20133;-86
2023/08/07 02:47:36;;;;;;;7.68;1.80;;;14.80;99.90;;;;;;4979272;28;20566;-85
2023/08/07 02:50:02;;;;;;;5.72;1.63;;;14.70;99.90;;;;;;4979449;28;20045;-85
2023/08/07 02:52:27;;;;;;;13.63;4.15;;;14.70;99.90;;;;;;4979199;28;20041;-86
2023/08/07 02:54:53;;;;;;;6.75;1.80;;;14.70;99.90;;;;;;4978689;28;20050;-86
2023/08/07 02:57:19;;;;;;;6.40;1.50;;;14.60;99.90;;;;;;4978357;28;20049;-86
2023/08/07 02:59:44;;;;;;;11.18;3.60;;;14.60;99.90;;;;;;4978225;28;20419;-86
2023/08/07 03:02:10;;;;;;;11.18;3.58;;;14.60;99.90;;;;;;4978301;28;20411;-86
2023/08/07 03:04:36;;;;;;;7.13;1.70;;;14.70;99.90;;;;;;4978583;28;20041;-86
2023/08/07 03:07:01;;;;;;;10.93;2.83;;;14.60;99.90;;;;;;4977834;28;20530;-86
2023/08/07 03:09:27;;;;;;;14.90;4.00;;;14.60;99.90;;;;;;4978289;28;20041;-86
2023/08/07 03:11:52;;;;;;;5.75;1.60;;;14.60;99.90;;;;;;4978392;28;20396;-86
2023/08/07 03:14:18;;;;;;;10.95;2.95;;;14.60;99.90;;;;;;4977985;28;20038;-86
2023/08/07 03:16:45;;;;;;;12.27;3.60;;;14.60;99.90;;;;;;4978020;28;20042;-86
2023/08/07 03:19:11;;;;;;;15.27;4.32;;;14.60;99.90;;;;;;4978475;28;20484;-86
2023/08/07 03:21:36;;;;;;;11.55;2.13;;;14.70;99.90;;;;;;4978228;28;20515;-86
2023/08/07 03:24:02;;;;;;;9.05;2.33;;;14.60;99.90;;;;;;4977272;28;20121;-86
2023/08/07 03:26:27;;;;;;;7.32;1.83;;;14.60;99.90;;;;;;4977180;28;20042;-86
2023/08/07 03:28:53;;;;;;;18.27;4.15;;;14.50;99.90;;;;;;4976794;28;20122;-86
2023/08/07 03:31:18;;;;;;;6.97;1.77;;;14.60;99.90;;;;;;4977822;28;20038;-87
2023/08/07 03:33:44;;;;;;;13.80;3.83;;;14.60;99.90;;;;;;4977825;28;20515;-86
2023/08/07 03:36:10;;;;;;;8.05;1.65;;;14.60;99.90;;;;;;4977484;28;20042;-86
2023/08/07 03:38:35;;;;;;;10.30;2.10;;;14.50;99.90;;;;;;4976947;28;20121;-86
2023/08/07 03:41:01;;;;;;;14.30;3.53;;;14.50;99.90;;;;;;4977802;28;20046;-86
2023/08/07 03:43:26;;;;;;;9.25;2.05;;;14.50;99.90;;;;;;4977278;28;20042;-86
2023/08/07 03:45:58;;;;;;;8.23;1.88;;;14.50;99.90;;;;;;4977315;28;20607;-86
2023/08/07 03:48:24;;;;;;;14.77;3.63;;;14.50;99.90;;;;;;4977122;28;20038;-86
2023/08/07 03:50:49;;;;;;;14.50;3.45;;;14.50;99.90;;;;;;4976462;28;20041;-86
2023/08/07 03:53:15;;;;;;;7.90;1.50;;;14.60;99.90;;;;;;4977395;28;20046;-86
2023/08/07 03:55:41;;;;;;;11.00;2.17;;;14.50;99.90;;;;;;4977202;28;20034;-86
2023/08/07 03:58:07;;;;;;;7.30;1.65;;;14.40;99.90;;;;;;4976717;28;20045;-85
2023/08/07 04:00:33;;;;;;;15.80;4.47;;;14.40;99.90;;;;;;4976924;28;20050;-85
2023/08/07 04:02:58;;;;;;;16.98;1.90;;;14.40;99.90;;;;;;4977206;28;20101;-85
2023/08/07 04:05:24;;;;;;;19.40;3.97;;;14.40;99.90;;;;;;4975746;28;20050;-85
2023/08/07 04:07:50;;;;;;;14.68;3.78;;;14.50;99.90;;;;;;4975003;28;20392;-85
2023/08/07 04:10:15;;;;;;;9.40;1.52;;;14.50;99.90;;;;;;4975713;28;20077;-85
2023/08/07 04:12:41;;;;;;;15.73;1.88;;;14.50;99.90;;;;;;4974823;28;20543;-85
2023/08/07 04:15:08;;;;;;;7.13;1.80;;;14.40;99.90;;;;;;4975714;28;20129;-85
2023/08/07 04:17:34;;;;;;;15.20;3.92;;;14.50;99.90;;;;;;4975543;28;20060;-85
2023/08/07 04:20:00;;;;;;;14.95;2.97;;;14.50;99.90;;;;;;4976383;28;20034;-85
2023/08/07 04:22:25;;;;;;;14.70;3.70;;;14.50;99.90;;;;;;4976709;28;20038;-85
2023/08/07 04:24:51;;;;;;;15.02;4.05;;;14.60;99.90;;;;;;4976982;28;20040;-86
2023/08/07 04:27:16;;;;;;;8.70;1.92;;;14.70;99.90;;;;;;4976178;28;20046;-85
2023/08/07 04:29:42;;;;;;;13.18;3.72;;;14.60;99.90;;;;;;4976870;28;20045;-85
2023/08/07 04:32:08;;;;;;;9.77;1.90;;;14.70;99.90;;;;;;4976676;28;20042;-85
2023/08/07 04:34:34;;;;;;;7.22;1.42;;;14.60;99.90;;;;;;4976440;28;20049;-85
2023/08/07 04:37:00;;;;;;;14.18;3.65;;;14.60;99.90;;;;;;4975873;28;20050;-86
2023/08/07 04:39:26;;;;;;;13.55;3.53;;;14.70;99.90;;;;;;4976765;28;20415;-86
2023/08/07 04:41:51;;;;;;;8.40;2.50;;;14.70;99.90;;;;;;4976525;28;20526;-86
2023/08/07 04:44:17;;;;;;;11.07;3.60;;;14.70;99.90;;;;;;4976491;28;20046;-85
2023/08/07 04:46:42;;;;;;;13.48;3.90;;;14.80;99.90;;;;;;4976288;28;20041;-86
2023/08/07 04:49:08;;;;;;;10.50;3.42;;;14.80;99.90;;;;;;4976637;28;20507;-86
2023/08/07 04:51:34;;;;;;;6.18;1.80;;;14.80;99.90;;;;;;4975708;28;20045;-86
2023/08/07 04:53:59;;;;;;;7.47;1.77;;;14.80;99.90;;;;;;4975943;28;20034;-86
2023/08/07 04:56:25;;;;;;;6.68;1.92;;;14.80;99.90;;;;;;4975998;28;20038;-86
2023/08/07 04:58:51;;;;;;;9.77;3.28;;;14.80;99.90;;;;;;4981317;28;20045;-86
2023/08/07 05:01:16;;;;;;;6.50;1.73;;;14.90;99.90;;;;;;4994266;28;20144;-86
2023/08/07 05:03:42;;;;;;;11.85;3.67;;;14.90;99.90;;;;;;4994193;28;20046;-86
2023/08/07 05:06:07;;;;;;;10.75;2.67;;;14.90;99.90;;;;;;4994216;28;20052;-86
2023/08/07 05:08:33;;;;;;;10.18;2.50;;;14.90;99.90;;;;;;4993562;28;20030;-87
2023/08/07 05:10:58;;;;;;;7.75;2.25;;;14.90;99.90;;;;;;5010517;28;20052;-87
2023/08/07 05:13:24;;;;;;;8.40;2.17;;;14.90;99.90;;;;;;5010301;28;20041;-86
2023/08/07 05:15:50;;;;;;;12.45;3.85;;;14.90;99.90;;;;;;5010735;28;20038;-86
2023/08/07 05:18:16;;;;;;;7.47;2.13;;;14.90;99.90;;;;;;4993755;28;20523;-87
2023/08/07 05:20:42;;;;;;;10.20;2.60;;;14.90;99.90;;;;;;4994432;28;20399;-86
2023/08/07 05:23:08;;;;;;;14.27;4.10;;;14.90;99.90;;;;;;4994062;28;20125;-86
2023/08/07 05:25:34;;;;;;;8.85;2.38;;;14.90;99.90;;;;;;5009945;28;20038;-87
2023/08/07 05:27:59;;;;;;;13.85;4.05;;;14.90;99.90;;;;;;4993610;28;20049;-87
2023/08/07 05:30:25;;;;;;;7.47;1.83;;;15.00;99.90;;;;;;4988898;28;20121;-86
2023/08/07 05:32:50;;;;;;;12.60;4.15;;;14.90;99.90;;;;;;4974156;28;20047;-86
2023/08/07 05:35:16;;;;;;;15.25;4.20;;;14.90;99.90;;;;;;4958362;28;20042;-86
2023/08/07 05:37:41;;;;;;;8.27;2.25;;;15.00;99.90;;;;;;4974571;28;20038;-86
2023/08/07 05:40:07;;;;;;;9.80;2.42;;;14.90;99.90;;;;;;4974519;28;20034;-86
2023/08/07 05:42:34;;;;;;;12.48;3.97;;;15.00;99.90;;;;;;4958505;28;20042;-86
2023/08/07 05:45:00;;;;;;;13.20;4.38;;;15.00;99.90;;;;;;4974203;28;20089;-86
2023/08/07 05:47:25;;;;;;;9.40;2.15;;;15.10;99.90;;;;;;4973818;28;20038;-86
2023/08/07 05:49:51;;;;;;;7.35;1.85;;;15.10;99.90;;;;;;4974763;28;20076;-87
2023/08/07 05:52:18;;;;;;;12.18;4.03;;;15.10;99.90;;;;;;4956558;28;20459;-86
2023/08/07 05:54:43;;;;;;;9.38;3.08;;;15.20;99.90;;;;;;4974647;28;20047;-85
2023/08/07 05:57:09;;;;;;;13.52;3.90;;;15.20;99.90;;;;;;4975001;28;20053;-86
2023/08/07 05:59:35;;;;;;;8.82;2.28;;;15.30;99.90;;;;;;4975025;28;20053;-85
2023/08/07 06:02:02;;;;;;;6.88;1.90;;;15.20;99.90;;;;;;4974579;28;20049;-85
2023/08/07 06:04:27;;;;;;;8.18;2.10;;;15.20;99.90;;;;;;4974829;28;20100;-86
2023/08/07 06:06:53;;;;;;;10.50;3.67;;;15.30;99.90;;;;;;4973885;28;20128;-85
2023/08/07 06:09:20;;;;;;;8.80;1.95;;;15.30;99.90;;;;;;4974187;28;20495;-86
2023/08/07 06:11:45;;;;;;;12.18;4.05;;;15.30;99.90;;;;;;4974495;28;20057;-85
2023/08/07 06:14:11;;;;;;;6.22;2.22;;;15.30;99.90;;;;;;4961733;28;20038;-85
2023/08/07 06:16:37;;;;;;;10.25;3.42;;;15.30;99.90;;;;;;4980762;28;20050;-85
2023/08/07 06:19:03;;;;;;;11.52;4.18;;;15.40;99.90;;;;;;4980934;28;20419;-85
2023/08/07 06:21:29;;;;;;;10.98;3.72;;;15.50;99.90;;;;;;4980418;28;20099;-85
2023/08/07 06:23:54;;;;;;;12.07;3.33;;;15.50;99.90;;;;;;4980323;28;20139;-85
2023/08/07 06:26:20;;;;;;;9.70;2.33;;;15.50;99.90;;;;;;4980618;28;20042;-85
2023/08/07 06:28:45;;;;;;;16.20;5.05;;;15.50;99.90;;;;;;4964025;28;20042;-85
2023/08/07 06:31:12;;;;;;;12.20;4.53;;;15.60;99.90;;;;;;4980219;28;20392;-86
2023/08/07 06:33:38;;;;;;;12.75;3.95;;;15.60;99.90;;;;;;4981071;28;20081;-85
2023/08/07 06:36:04;;;;;;;9.05;1.90;;;15.60;99.90;;;;;;4981046;28;20070;-86
2023/08/07 06:38:31;;;;;;;9.98;2.78;;;15.60;99.90;;;;;;4980389;28;20038;-86
2023/08/07 06:40:57;;;;;;;15.98;4.63;;;15.60;99.90;;;;;;4980398;28;20053;-86
2023/08/07 06:43:22;;;;;;;14.00;4.13;;;15.70;99.90;;;;;;4979865;28;20046;-86
2023/08/07 06:45:50;;;;;;;15.50;4.28;;;15.90;99.90;;;;;;4979846;28;20082;-86
2023/08/07 06:48:16;;;;;;;12.23;4.70;;;15.90;99.90;;;;;;4978591;28;20034;-86
2023/08/07 06:50:41;;;;;;;9.20;2.80;;;16.00;99.90;;;;;;4978497;28;20594;-86
2023/08/07 06:53:07;;;;;;;17.38;5.00;;;15.90;99.90;;;;;;4980847;28;20034;-86
2023/08/07 06:55:33;;;;;;;14.77;5.10;;;15.90;99.90;;;;;;4979175;28;20415;-86
2023/08/07 06:57:59;;;;;;;9.77;3.58;;;15.90;99.90;;;;;;4980484;28;20049;-86
2023/08/07 07:00:24;;;;;;;13.55;3.22;;;15.80;99.90;;;;;;4980552;28;20042;-86
2023/08/07 07:02:50;;;;;;;9.63;2.67;;;15.80;99.90;;;;;;4980016;28;20184;-86
2023/08/07 07:05:16;;;;;;;12.60;3.72;;;15.70;99.90;;;;;;4980462;28;20041;-86
2023/08/07 07:07:41;;;;;;;12.45;3.70;;;15.80;99.90;;;;;;4979502;28;20462;-86
2023/08/07 07:10:07;;;;;;;12.27;3.70;;;15.80;99.90;;;;;;4980018;28;20042;-86
2023/08/07 07:12:33;;;;;;;12.20;2.33;;;15.90;99.90;;;;;;4980105;28;20030;-86
2023/08/07 07:14:58;;;;;;;10.95;3.50;;;15.90;99.90;;;;;;4980612;28;20495;-86
2023/08/07 07:17:24;;;;;;;10.82;3.30;;;15.90;99.90;;;;;;4964395;28;20046;-86
2023/08/07 07:19:49;;;;;;;10.38;2.10;;;16.00;99.90;;;;;;4980749;28;20053;-86
2023/08/07 07:22:15;;;;;;;11.25;3.25;;;16.00;99.90;;;;;;4980124;28;20129;-86
2023/08/07 07:24:41;;;;;;;12.02;3.28;;;16.10;99.90;;;;;;4980081;28;20053;-86
2023/08/07 07:27:06;;;;;;;13.65;4.10;;;16.20;99.90;;;;;;4976548;28;20493;-86
2023/08/07 07:29:32;;;;;;;6.95;2.10;;;16.20;99.90;;;;;;4976968;28;20049;-86
2023/08/07 07:31:58;;;;;;;14.40;4.03;;;16.20;99.90;;;;;;4977248;28;20114;-85
2023/08/07 07:34:23;;;;;;;14.52;4.45;;;16.20;99.90;;;;;;4993125;28;20113;-86
2023/08/07 07:36:49;;;;;;;9.18;2.03;;;16.30;99.90;;;;;;4976418;28;20410;-86
2023/08/07 07:39:14;;;;;;;12.85;4.05;;;16.30;99.90;;;;;;4976848;28;20042;-85
2023/08/07 07:41:40;;;;;;;7.93;2.13;;;16.40;99.90;;;;;;4976063;28;20031;-86
2023/08/07 07:44:05;;;;;;;13.60;3.97;;;16.40;99.90;;;;;;4976341;28;20049;-86
2023/08/07 07:46:32;;;;;;;11.82;3.92;;;16.50;99.90;;;;;;4976008;28;20042;-86
2023/08/07 07:48:58;;;;;;;7.40;2.45;;;16.60;99.90;;;;;;4976406;28;20121;-87
2023/08/07 07:51:24;;;;;;;12.50;4.03;;;16.60;99.90;;;;;;4976861;28;20053;-87
2023/08/07 07:53:50;;;;;;;12.00;3.90;;;16.60;99.90;;;;;;4977036;28;20042;-87
2023/08/07 07:56:16;;;;;;;11.68;3.67;;;16.70;99.90;;;;;;4983300;28;20130;-87
2023/08/07 07:58:41;;;;;;;7.28;2.28;;;16.80;99.90;;;;;;4977948;28;20038;-86
2023/08/07 08:01:08;;;;;;;9.50;2.85;;;16.80;99.90;;;;;;4977841;28;20042;-87
2023/08/07 08:03:34;;;;;;;12.88;3.13;;;16.90;99.90;;;;;;4977606;28;20519;-86
2023/08/07 08:06:08;;;;;;;11.85;3.13;;;16.90;99.90;;;;;;4977710;28;20555;-86
2023/08/07 08:08:34;;;;;;;10.68;2.38;;;17.00;99.90;;;;;;4994286;28;20113;-87
2023/08/07 08:11:00;;;;;;;10.05;2.70;;;17.10;99.90;;;;;;4976370;28;20173;-87
2023/08/07 08:13:25;;;;;;;9.98;2.63;;;17.20;99.90;;;;;;4976743;28;20419;-87
2023/08/07 08:15:51;;;;;;;9.10;1.77;;;17.20;99.90;;;;;;4976278;28;20046;-87
2023/08/07 08:18:16;;;;;;;8.57;2.20;;;17.10;99.90;;;;;;4976244;28;20049;-86
2023/08/07 08:20:42;;;;;;;9.60;2.28;;;17.00;99.90;;;;;;4976322;28;20047;-87
2023/08/07 08:23:08;;;;;;;8.32;2.13;;;16.90;99.90;;;;;;4976142;28;20449;-86
2023/08/07 08:25:33;;;;;;;6.03;2.35;;;16.90;99.90;;;;;;4976084;28;20521;-86
2023/08/07 08:28:02;;;;;;;7.57;2.05;;;16.80;99.90;;;;;;4975368;28;20038;-86
2023/08/07 08:30:28;;;;;;;7.28;2.10;;;16.80;99.90;;;;;;4992564;28;20092;-87
2023/08/07 08:32:54;;;;;;;8.65;1.85;;;16.80;99.90;;;;;;4976125;28;20041;-86
2023/08/07 08:35:20;;;;;;;4.70;1.38;;;16.90;99.90;;;;;;4975831;28;20034;-87
2023/08/07 08:37:45;;;;;;;7.00;2.25;;;16.80;99.90;;;;;;4975632;28;20046;-86
2023/08/07 08:40:18;;;;;;;7.40;2.28;;;16.80;99.90;;;;;;4975749;28;20149;-87
2023/08/07 08:42:47;;;;;;;7.70;1.60;;;16.90;99.90;;;;;;4975497;28;20038;-86
2023/08/07 08:45:14;;;;;;;8.90;2.40;;;16.90;99.90;;;;;;4991741;28;20038;-86
2023/08/07 08:47:41;;;;;;;8.27;2.55;;;16.90;99.90;;;;;;4974342;28;20042;-87
2023/08/07 08:50:09;;;;;;;8.32;2.55;;;17.00;99.90;;;;;;4991923;28;20089;-86
2023/08/07 08:52:44;;;;;;;6.63;1.90;;;17.00;99.90;;;;;;4975836;28;20118;-87
2023/08/07 08:55:12;;;;;;;9.57;2.80;;;17.00;99.90;;;;;;4975766;28;20120;-87
2023/08/07 08:57:39;;;;;;;11.70;3.15;;;17.00;99.90;;;;;;4975847;28;20085;-86
2023/08/07 09:00:15;;;;;;;11.38;3.53;;;16.90;99.90;;;;;;4992308;28;20134;-86
2023/08/07 09:02:42;;;;;;;11.93;3.25;;;16.90;99.90;;;;;;4975064;28;20057;-87
2023/08/07 09:05:09;;;;;;;8.15;2.58;;;16.80;99.90;;;;;;4975444;28;20062;-87
2023/08/07 09:07:35;;;;;;;9.52;2.17;;;16.80;99.90;;;;;;4974983;28;20049;-86
2023/08/07 09:10:02;;;;;;;11.65;2.97;;;16.60;99.90;;;;;;4975777;28;20046;-87
2023/08/07 09:12:32;;;;;;;6.13;1.85;;;16.60;99.90;;;;;;4975936;28;20118;-87
2023/08/07 09:14:58;;;;;;;10.07;2.67;;;16.60;99.90;;;;;;4991806;28;20084;-86
2023/08/07 09:17:33;;;;;;;11.02;3.20;;;16.70;99.90;;;;;;4975402;28;20045;-86
2023/08/07 09:19:59;;;;;;;10.93;3.38;;;16.90;99.90;;;;;;4975505;28;20057;-86
2023/08/07 09:22:25;;;;;;;11.55;3.42;;;17.00;99.90;;;;;;4975104;28;20042;-87
2023/08/07 09:24:50;;;;;;;13.30;3.95;;;17.10;99.90;;;;;;4975294;28;20065;-87
2023/08/07 09:27:16;;;;;;;12.07;3.60;;;17.20;99.90;;;;;;4974471;28;20097;-86
2023/08/07 09:29:43;;;;;;;10.38;2.65;;;17.30;99.90;;;;;;4975395;28;20038;-87
2023/08/07 09:32:13;;;;;;;14.27;3.70;;;17.30;99.90;;;;;;4975479;28;20042;-87
2023/08/07 09:34:42;;;;;;;12.05;3.78;;;17.40;99.90;;;;;;4975058;28;20562;-87
2023/08/07 09:37:11;;;;;;;10.85;2.38;;;17.40;99.90;;;;;;4974668;28;20046;-86
2023/08/07 09:39:37;;;;;;;12.60;3.22;;;17.50;99.90;;;;;;4975126;28;20042;-86
2023/08/07 09:42:14;;;;;;;13.52;4.13;;;17.50;99.90;;;;;;4974507;28;20056;-86
2023/08/07 09:44:39;;;;;;;11.82;3.97;;;17.60;99.90;;;;;;4973922;28;20096;-86
2023/08/07 09:47:13;;;;;;;12.65;3.70;;;17.60;99.90;;;;;;4991431;28;20407;-87
2023/08/07 09:49:38;;;;;;;12.30;4.13;;;17.60;99.90;;;;;;4954658;28;20026;-87
2023/08/07 09:52:07;;;;;;;12.80;3.92;;;17.50;99.90;;;;;;4974613;28;20431;-86
2023/08/07 09:54:33;;;;;;;13.30;3.70;;;17.40;99.90;;;;;;4974785;28;20038;-86
2023/08/07 09:57:01;;;;;;;9.50;3.03;;;17.50;99.90;;;;;;4971600;28;20042;-87
2023/08/07 09:59:27;;;;;;;12.32;3.55;;;17.60;99.90;;;;;;4958004;28;20108;-86
2023/08/07 10:01:54;;;;;;;10.13;2.90;;;17.80;99.90;;;;;;4974261;28;20042;-86
2023/08/07 10:04:24;;;;;;;14.02;3.72;;;17.90;99.90;;;;;;4988008;28;20038;-87
2023/08/07 10:06:51;;;;;;;11.40;3.25;;;18.00;99.90;;;;;;4973675;28;20093;-87
2023/08/07 10:09:16;;;;;;;11.43;3.38;;;18.20;99.90;;;;;;4973871;28;20084;-86
2023/08/07 10:11:42;;;;;;;9.63;3.20;;;18.30;99.90;;;;;;4974301;28;20043;-87
2023/08/07 10:14:14;;;;;;;9.48;2.90;;;18.30;99.90;;;;;;4974779;28;20034;-86
2023/08/07 10:16:41;;;;;;;10.25;2.92;;;18.40;99.90;;;;;;4971059;28;20403;-85
2023/08/07 10:19:07;;;;;;;10.25;3.17;;;18.40;99.90;;;;;;4974522;28;20034;-86
2023/08/07 10:21:36;;;;;;;11.80;2.92;;;18.50;99.90;;;;;;4973811;28;20046;-86
2023/08/07 10:24:04;;;;;;;11.07;2.90;;;18.50;99.90;;;;;;4974131;28;20049;-87
2023/08/07 10:26:34;;;;;;;11.32;2.97;;;18.50;99.90;;;;;;4974020;28;20035;-86
2023/08/07 10:29:03;;;;;;;12.70;3.70;;;18.50;99.90;;;;;;4974038;28;20522;-87
2023/08/07 10:31:30;;;;;;;9.82;3.42;;;18.30;99.90;;;;;;4990092;28;20034;-87
2023/08/07 10:33:55;;;;;;;12.63;3.38;;;18.20;99.90;;;;;;4974418;28;20042;-86
2023/08/07 10:36:21;;;;;;;9.23;2.75;;;18.30;99.90;;;;;;4974334;28;20098;-87
2023/08/07 10:38:51;;;;;;;9.88;3.47;;;18.30;99.90;;;;;;4973734;28;20042;-87
2023/08/07 10:41:18;;;;;;;12.60;3.65;;;18.40;99.90;;;;;;4955903;28;20038;-86
2023/08/07 10:43:45;;;;;;;10.52;3.08;;;18.40;99.90;;;;;;4957459;28;20042;-87
2023/08/07 10:46:21;;;;;;;9.98;2.83;;;18.50;99.90;;;;;;4973626;28;20076;-87
2023/08/07 10:48:54;;;;;;;9.85;3.22;;;18.60;99.90;;;;;;4974010;28;20038;-87
2023/08/07 10:51:20;;;;;;;10.27;3.13;;;18.70;99.90;;;;;;4972616;28;20406;-87
2023/08/07 10:53:51;;;;;;;10.10;2.75;;;18.60;99.90;;;;;;4974304;28;20567;-87
2023/08/07 10:56:28;;;;;;;11.30;3.10;;;18.50;99.90;;;;;;4971764;28;20092;-87
2023/08/07 10:58:54;;;;;;;10.90;2.97;;;18.50;99.90;;;;;;4974719;28;20038;-88
2023/08/07 11:01:29;;;;;;;10.23;2.78;;;18.40;99.90;;;;;;4977065;28;20420;-87
2023/08/07 11:03:56;;;;;;;10.85;3.40;;;18.40;99.90;;;;;;4961128;28;20092;-87
2023/08/07 11:06:33;;;;;;;10.27;2.75;;;18.40;99.90;;;;;;4977657;28;20133;-87
2023/08/07 11:08:59;;;;;;;12.65;3.30;;;18.50;99.90;;;;;;4977286;28;20035;-87
2023/08/07 11:11:26;;;;;;;9.23;2.97;;;18.60;99.90;;;;;;4978193;28;20052;-87
2023/08/07 11:13:52;;;;;;;11.27;3.05;;;18.70;99.90;;;;;;4977865;28;20049;-88
2023/08/07 11:16:20;;;;;;;9.95;2.78;;;18.80;99.90;;;;;;4977298;28;20038;-87
2023/08/07 11:18:47;;;;;;;8.85;2.60;;;18.90;99.90;;;;;;4993944;28;20054;-88
2023/08/07 11:21:13;;;;;;;10.65;2.63;;;19.00;99.90;;;;;;4993851;28;20384;-88
2023/08/07 11:23:40;;;;;;;9.60;3.13;;;19.00;99.00;;;;;;4977295;28;20045;-88
2023/08/07 11:26:07;;;;;;;9.02;2.97;;;18.90;97.20;;;;;;4976372;28;20054;-87
2023/08/07 11:28:32;;;;;;;10.55;2.90;;;18.80;95.50;;;;;;4975863;28;20038;-88
2023/08/07 11:30:58;;;;;;;9.68;2.83;;;18.70;98.60;;;;;;4977317;28;20129;-88
2023/08/07 11:33:25;;;;;;;9.77;2.97;;;18.70;99.10;;;;;;4977020;28;20125;-88
2023/08/07 11:35:51;;;;;;;11.85;2.70;;;18.60;99.90;;;;;;4976746;28;20061;-88
2023/08/07 11:38:34;;;;;;;9.25;2.90;;;18.60;99.90;;;;;;4976906;28;20045;-88
2023/08/07 11:41:00;;;;;;;;;;;18.70;99.90;;;;;;4977181;28;20409;-88
2023/08/07 11:43:30;;;;;;;10.93;3.40;;;18.80;99.90;;;;;;4976425;28;19969;-88
2023/08/07 11:45:58;;;;;;;14.95;3.20;;;19.00;99.90;;;;;;4976955;28;20034;-88
2023/08/07 11:48:26;;;;;;;10.38;3.05;;;19.30;99.90;;;;;;4992389;28;20035;-88
2023/08/07 11:50:52;;;;;;;8.40;2.58;;;19.30;99.90;;;;;;4977212;28;20577;-88
2023/08/07 11:53:19;;;;;;;8.40;2.58;;;19.40;99.90;;;;;;4977334;28;20160;-88
2023/08/07 11:56:05;;;;;;;8.45;2.40;;;19.40;98.70;;;;;;4977082;28;20133;-88
2023/08/07 11:58:39;;;;;;;9.70;3.05;;;19.50;99.90;;;;;;4977133;28;20042;-88
2023/08/07 12:01:16;;;;;;;9.32;2.78;;;19.70;99.90;;;;;;4977397;28;20038;-88
2023/08/07 12:03:50;;;;;;;9.75;2.17;;;19.80;97.20;;;;;;4976734;28;20053;-88
2023/08/07 12:06:16;;;;;;;8.40;2.22;;;19.80;95.20;;;;;;4976586;28;20057;-88
2023/08/07 12:08:42;;;;;;;8.23;2.08;;;19.70;91.20;;;;;;4976476;28;20499;-88
2023/08/07 12:11:12;;;;;;;6.25;2.10;;;19.60;90.30;;;;;;4976354;28;20045;-88
2023/08/07 12:13:40;;;;;;;6.97;2.22;;;19.50;89.30;;;;;;4976545;28;20450;-88
2023/08/07 12:16:06;;;;;;;7.78;2.10;;;19.40;89.70;;;;;;4992713;28;20104;-88
2023/08/07 12:18:32;;;;;;;8.20;2.33;;;19.40;88.90;;;;;;4976771;28;20039;-88
2023/08/07 12:21:00;;;;;;;9.90;2.65;;;19.40;91.00;;;;;;4976979;28;20411;-88
2023/08/07 12:23:26;;;;;;;8.50;2.38;;;19.30;90.10;;;;;;4976123;28;20511;-88
2023/08/07 12:25:52;;;;;;;9.05;2.40;;;19.30;91.40;;;;;;4992259;28;20101;-88
2023/08/07 12:28:18;;;;;;;9.57;2.25;;;19.10;91.80;;;;;;4975994;28;20070;-88
2023/08/07 12:30:46;;;;;;;8.48;2.40;;;19.00;93.30;;;;;;4992802;28;20046;-87
2023/08/07 12:33:12;;;;;;;10.85;3.33;;;19.10;94.30;;;;;;4976739;28;20030;-88
2023/08/07 12:35:37;;;;;;;8.70;2.50;;;19.30;96.60;;;;;;4976492;28;20038;-88
2023/08/07 12:38:03;;;;;;;8.55;2.55;;;19.50;96.00;;;;;;4976464;28;20039;-88